sensor_id;sensor_type;location;lat;lon;timestamp;pressure;altitude;pressure_sealevel;temperature;humidity
21760;BME280;11041;50.854;20.580;2024-02-15T00:02:25;99311.78;;;2.80;83.26
21760;BME280;11041;50.854;20.580;2024-02-15T00:04:53;99312.84;;;2.78;82.82
21760;BME280;11041;50.854;20.580;2024-02-15T00:07:20;99309.91;;;2.80;82.84
21760;BME280;11041;50.854;20.580;2024-02-15T00:09:50;99315.31;;;2.80;83.16
21760;BME280;11041;50.854;20.580;2024-02-15T00:12:17;99316.47;;;2.84;83.22
21760;BME280;11041;50.854;20.580;2024-02-15T00:14:44;99317.88;;;2.87;83.18
21760;BME280;11041;50.854;20.580;2024-02-15T00:17:10;99311.34;;;2.88;82.94
21760;BME280;11041;50.854;20.580;2024-02-15T00:19:38;99314.13;;;2.93;83.18
21760;BME280;11041;50.854;20.580;2024-02-15T00:22:09;99318.56;;;2.99;82.96
21760;BME280;11041;50.854;20.580;2024-02-15T00:24:37;99309.91;;;3.02;83.27
21760;BME280;11041;50.854;20.580;2024-02-15T00:27:09;99305.88;;;3.05;82.69
21760;BME280;11041;50.854;20.580;2024-02-15T00:29:41;99299.09;;;3.07;83.93
21760;BME280;11041;50.854;20.580;2024-02-15T00:32:08;99303.22;;;3.10;83.44
21760;BME280;11041;50.854;20.580;2024-02-15T00:34:37;99308.16;;;3.13;83.41
21760;BME280;11041;50.854;20.580;2024-02-15T00:37:07;99305.16;;;3.14;83.37
21760;BME280;11041;50.854;20.580;2024-02-15T00:39:34;99310.09;;;3.17;82.38
21760;BME280;11041;50.854;20.580;2024-02-15T00:42:00;99310.94;;;3.18;82.50
21760;BME280;11041;50.854;20.580;2024-02-15T00:44:27;99308.22;;;3.18;82.39
21760;BME280;11041;50.854;20.580;2024-02-15T00:46:53;99310.66;;;3.19;82.07
21760;BME280;11041;50.854;20.580;2024-02-15T00:49:20;99312.56;;;3.19;82.37
21760;BME280;11041;50.854;20.580;2024-02-15T00:51:48;99304.97;;;3.21;82.81
21760;BME280;11041;50.854;20.580;2024-02-15T00:54:15;99305.81;;;3.22;82.31
21760;BME280;11041;50.854;20.580;2024-02-15T00:56:44;99300.13;;;3.23;82.16
21760;BME280;11041;50.854;20.580;2024-02-15T00:59:12;99300.66;;;3.20;81.69
21760;BME280;11041;50.854;20.580;2024-02-15T01:01:39;99302.78;;;3.18;81.87
21760;BME280;11041;50.854;20.580;2024-02-15T01:04:08;99298.69;;;3.15;81.40
21760;BME280;11041;50.854;20.580;2024-02-15T01:06:34;99304.66;;;3.17;82.27
21760;BME280;11041;50.854;20.580;2024-02-15T01:09:02;99305.22;;;3.19;82.23
21760;BME280;11041;50.854;20.580;2024-02-15T01:11:32;99304.75;;;3.23;82.18
21760;BME280;11041;50.854;20.580;2024-02-15T01:13:58;99304.47;;;3.24;81.72
21760;BME280;11041;50.854;20.580;2024-02-15T01:16:27;99293.59;;;3.24;81.52
21760;BME280;11041;50.854;20.580;2024-02-15T01:18:53;99300.69;;;3.25;82.01
21760;BME280;11041;50.854;20.580;2024-02-15T01:21:20;99302.56;;;3.25;81.59
21760;BME280;11041;50.854;20.580;2024-02-15T01:23:50;99296.59;;;3.23;81.42
21760;BME280;11041;50.854;20.580;2024-02-15T01:26:20;99300.94;;;3.24;81.36
21760;BME280;11041;50.854;20.580;2024-02-15T01:28:49;99291.97;;;3.23;81.69
21760;BME280;11041;50.854;20.580;2024-02-15T01:31:18;99291.16;;;3.23;81.42
21760;BME280;11041;50.854;20.580;2024-02-15T01:33:46;99289.50;;;3.22;81.75
21760;BME280;11041;50.854;20.580;2024-02-15T01:36:21;99288.69;;;3.21;81.86
21760;BME280;11041;50.854;20.580;2024-02-15T01:38:47;99294.13;;;3.21;81.21
21760;BME280;11041;50.854;20.580;2024-02-15T01:41:16;99290.31;;;3.22;81.60
21760;BME280;11041;50.854;20.580;2024-02-15T01:43:46;99287.38;;;3.24;81.62
21760;BME280;11041;50.854;20.580;2024-02-15T01:46:19;99290.31;;;3.22;82.41
21760;BME280;11041;50.854;20.580;2024-02-15T01:48:48;99289.84;;;3.25;81.97
21760;BME280;11041;50.854;20.580;2024-02-15T01:51:18;99295.84;;;3.27;82.75
21760;BME280;11041;50.854;20.580;2024-02-15T01:53:52;99284.47;;;3.30;82.50
21760;BME280;11041;50.854;20.580;2024-02-15T01:56:24;99292.09;;;3.33;82.88
21760;BME280;11041;50.854;20.580;2024-02-15T01:58:51;99285.28;;;3.31;82.76
21760;BME280;11041;50.854;20.580;2024-02-15T02:01:19;99296.72;;;3.33;82.42
21760;BME280;11041;50.854;20.580;2024-02-15T02:03:50;99290.47;;;3.32;82.46
21760;BME280;11041;50.854;20.580;2024-02-15T02:06:21;99291.84;;;3.35;82.61
21760;BME280;11041;50.854;20.580;2024-02-15T02:08:49;99284.81;;;3.39;82.67
21760;BME280;11041;50.854;20.580;2024-02-15T02:11:19;99295.19;;;3.42;82.33
21760;BME280;11041;50.854;20.580;2024-02-15T02:13:49;99297.06;;;3.41;82.48
21760;BME280;11041;50.854;20.580;2024-02-15T02:16:31;99291.38;;;3.43;82.10
21760;BME280;11041;50.854;20.580;2024-02-15T02:19:01;99295.19;;;3.42;81.79
21760;BME280;11041;50.854;20.580;2024-02-15T02:21:28;99292.72;;;3.40;82.10
21760;BME280;11041;50.854;20.580;2024-02-15T02:24:04;99289.75;;;3.42;81.55
21760;BME280;11041;50.854;20.580;2024-02-15T02:26:34;99291.38;;;3.43;81.97
21760;BME280;11041;50.854;20.580;2024-02-15T02:29:03;99287.84;;;3.42;82.05
21760;BME280;11041;50.854;20.580;2024-02-15T02:31:34;99287.59;;;3.44;82.09
21760;BME280;11041;50.854;20.580;2024-02-15T02:34:03;99290.88;;;3.46;81.59
21760;BME280;11041;50.854;20.580;2024-02-15T02:36:30;99293.91;;;3.50;81.76
21760;BME280;11041;50.854;20.580;2024-02-15T02:38:58;99295.03;;;3.54;81.14
21760;BME280;11041;50.854;20.580;2024-02-15T02:41:29;99292.06;;;3.55;81.85
21760;BME280;11041;50.854;20.580;2024-02-15T02:43:58;99294.53;;;3.57;82.39
21760;BME280;11041;50.854;20.580;2024-02-15T02:46:28;99293.19;;;3.59;81.16
21760;BME280;11041;50.854;20.580;2024-02-15T02:48:54;99292.09;;;3.60;81.62
21760;BME280;11041;50.854;20.580;2024-02-15T02:51:21;99289.66;;;3.59;81.04
21760;BME280;11041;50.854;20.580;2024-02-15T02:53:48;99288.00;;;3.58;81.02
21760;BME280;11041;50.854;20.580;2024-02-15T02:56:15;99288.84;;;3.58;81.64
21760;BME280;11041;50.854;20.580;2024-02-15T02:58:49;99294.28;;;3.58;81.43
21760;BME280;11041;50.854;20.580;2024-02-15T03:01:19;99287.19;;;3.57;80.83
21760;BME280;11041;50.854;20.580;2024-02-15T03:03:45;99297.00;;;3.58;81.68
21760;BME280;11041;50.854;20.580;2024-02-15T03:06:14;99296.66;;;3.55;81.82
21760;BME280;11041;50.854;20.580;2024-02-15T03:08:43;99301.88;;;3.56;81.89
21760;BME280;11041;50.854;20.580;2024-02-15T03:11:13;99293.13;;;3.54;82.46
21760;BME280;11041;50.854;20.580;2024-02-15T03:13:44;99294.19;;;3.53;81.81
21760;BME280;11041;50.854;20.580;2024-02-15T03:16:11;99288.75;;;3.53;82.43
21760;BME280;11041;50.854;20.580;2024-02-15T03:18:38;99297.75;;;3.54;82.23
21760;BME280;11041;50.854;20.580;2024-02-15T03:21:04;99295.03;;;3.54;81.88
21760;BME280;11041;50.854;20.580;2024-02-15T03:23:33;99289.84;;;3.52;82.19
21760;BME280;11041;50.854;20.580;2024-02-15T03:26:05;99294.47;;;3.52;82.71
21760;BME280;11041;50.854;20.580;2024-02-15T03:28:33;99295.28;;;3.52;82.88
21760;BME280;11041;50.854;20.580;2024-02-15T03:31:02;99306.97;;;3.53;82.72
21760;BME280;11041;50.854;20.580;2024-02-15T03:33:29;99300.16;;;3.50;83.14
21760;BME280;11041;50.854;20.580;2024-02-15T03:36:01;99300.66;;;3.47;82.87
21760;BME280;11041;50.854;20.580;2024-02-15T03:38:30;99302.31;;;3.48;83.04
21760;BME280;11041;50.854;20.580;2024-02-15T03:40:59;99295.25;;;3.47;83.91
21760;BME280;11041;50.854;20.580;2024-02-15T03:43:28;99296.88;;;3.48;83.31
21760;BME280;11041;50.854;20.580;2024-02-15T03:45:56;99293.34;;;3.48;83.42
21760;BME280;11041;50.854;20.580;2024-02-15T03:48:24;99296.28;;;3.46;83.87
21760;BME280;11041;50.854;20.580;2024-02-15T03:50:50;99292.75;;;3.46;83.81
21760;BME280;11041;50.854;20.580;2024-02-15T03:53:19;99294.91;;;3.44;83.55
21760;BME280;11041;50.854;20.580;2024-02-15T03:55:49;99298.97;;;3.41;84.23
21760;BME280;11041;50.854;20.580;2024-02-15T03:58:20;99305.22;;;3.41;83.96
21760;BME280;11041;50.854;20.580;2024-02-15T04:00:48;99303.34;;;3.42;84.05
21760;BME280;11041;50.854;20.580;2024-02-15T04:03:16;99300.63;;;3.42;84.07
21760;BME280;11041;50.854;20.580;2024-02-15T04:05:42;99296.00;;;3.42;84.75
21760;BME280;11041;50.854;20.580;2024-02-15T04:08:09;99295.19;;;3.42;85.14
21760;BME280;11041;50.854;20.580;2024-02-15T04:10:40;99297.91;;;3.42;85.32
21760;BME280;11041;50.854;20.580;2024-02-15T04:13:47;99298.97;;;3.41;85.42
21760;BME280;11041;50.854;20.580;2024-02-15T04:16:36;99290.00;;;3.40;85.80
21760;BME280;11041;50.854;20.580;2024-02-15T04:19:03;99300.88;;;3.40;85.89
21760;BME280;11041;50.854;20.580;2024-02-15T04:21:31;99301.69;;;3.41;86.42
21760;BME280;11041;50.854;20.580;2024-02-15T04:23:58;99298.16;;;3.40;86.61
21760;BME280;11041;50.854;20.580;2024-02-15T04:26:29;99292.41;;;3.37;86.54
21760;BME280;11041;50.854;20.580;2024-02-15T04:28:59;99295.38;;;3.35;87.29
21760;BME280;11041;50.854;20.580;2024-02-15T04:31:28;99287.75;;;3.32;87.28
21760;BME280;11041;50.854;20.580;2024-02-15T04:33:56;99287.75;;;3.32;87.74
21760;BME280;11041;50.854;20.580;2024-02-15T04:36:27;99286.34;;;3.30;87.96
21760;BME280;11041;50.854;20.580;2024-02-15T04:38:58;99287.41;;;3.29;87.70
21760;BME280;11041;50.854;20.580;2024-02-15T04:41:29;99283.88;;;3.28;88.83
21760;BME280;11041;50.854;20.580;2024-02-15T04:43:58;99282.56;;;3.31;88.80
21760;BME280;11041;50.854;20.580;2024-02-15T04:46:26;99282.88;;;3.34;88.71
21760;BME280;11041;50.854;20.580;2024-02-15T04:48:54;99281.56;;;3.37;89.57
21760;BME280;11041;50.854;20.580;2024-02-15T04:51:21;99289.44;;;3.38;89.46
21760;BME280;11041;50.854;20.580;2024-02-15T04:53:50;99284.81;;;3.39;89.69
21760;BME280;11041;50.854;20.580;2024-02-15T04:56:18;99286.47;;;3.40;90.36
21760;BME280;11041;50.854;20.580;2024-02-15T04:58:47;99284.56;;;3.40;90.37
21760;BME280;11041;50.854;20.580;2024-02-15T05:01:15;99294.91;;;3.44;89.88
21760;BME280;11041;50.854;20.580;2024-02-15T05:03:48;99296.81;;;3.43;90.11
21760;BME280;11041;50.854;20.580;2024-02-15T05:06:24;99300.34;;;3.44;89.53
21760;BME280;11041;50.854;20.580;2024-02-15T05:08:56;99295.44;;;3.40;89.39
21760;BME280;11041;50.854;20.580;2024-02-15T05:11:23;99302.44;;;3.36;89.42
21760;BME280;11041;50.854;20.580;2024-02-15T05:13:52;99298.34;;;3.34;90.03
21760;BME280;11041;50.854;20.580;2024-02-15T05:16:25;99311.91;;;3.34;90.55
21760;BME280;11041;50.854;20.580;2024-02-15T05:18:55;99311.91;;;3.34;90.95
21760;BME280;11041;50.854;20.580;2024-02-15T05:21:23;99315.72;;;3.33;91.50
21760;BME280;11041;50.854;20.580;2024-02-15T05:23:50;99319.50;;;3.32;91.27
21760;BME280;11041;50.854;20.580;2024-02-15T05:26:19;99305.09;;;3.31;91.66
21760;BME280;11041;50.854;20.580;2024-02-15T05:28:51;99315.72;;;3.33;91.85
21760;BME280;11041;50.854;20.580;2024-02-15T05:31:21;99311.34;;;3.32;92.22
21760;BME280;11041;50.854;20.580;2024-02-15T05:33:53;99315.16;;;3.31;92.17
21760;BME280;11041;50.854;20.580;2024-02-15T05:36:21;99308.63;;;3.32;92.42
21760;BME280;11041;50.854;20.580;2024-02-15T05:38:52;99313.00;;;3.33;92.87
21760;BME280;11041;50.854;20.580;2024-02-15T05:41:22;99313.25;;;3.31;92.99
21760;BME280;11041;50.854;20.580;2024-02-15T05:43:51;99317.88;;;3.31;92.62
21760;BME280;11041;50.854;20.580;2024-02-15T05:46:26;99329.31;;;3.33;92.83
21760;BME280;11041;50.854;20.580;2024-02-15T05:48:57;99320.91;;;3.34;93.11
21760;BME280;11041;50.854;20.580;2024-02-15T05:51:23;99325.50;;;3.34;92.99
21760;BME280;11041;50.854;20.580;2024-02-15T05:53:54;99314.63;;;3.34;93.49
21760;BME280;11041;50.854;20.580;2024-02-15T05:56:25;99331.25;;;3.37;93.20
21760;BME280;11041;50.854;20.580;2024-02-15T05:58:54;99332.66;;;3.40;93.69
21760;BME280;11041;50.854;20.580;2024-02-15T06:01:26;99340.28;;;3.43;93.48
21760;BME280;11041;50.854;20.580;2024-02-15T06:03:55;99338.94;;;3.46;93.65
21760;BME280;11041;50.854;20.580;2024-02-15T06:06:22;99336.00;;;3.47;92.81
21760;BME280;11041;50.854;20.580;2024-02-15T06:08:50;99334.66;;;3.50;93.11
21760;BME280;11041;50.854;20.580;2024-02-15T06:11:20;99336.28;;;3.51;93.04
21760;BME280;11041;50.854;20.580;2024-02-15T06:13:47;99338.75;;;3.52;93.22
21760;BME280;11041;50.854;20.580;2024-02-15T06:16:13;99338.75;;;3.52;93.15
21760;BME280;11041;50.854;20.580;2024-02-15T06:18:40;99345.28;;;3.51;92.74
21760;BME280;11041;50.854;20.580;2024-02-15T06:21:06;99354.56;;;3.55;92.80
21760;BME280;11041;50.854;20.580;2024-02-15T06:23:35;99345.59;;;3.55;92.84
21760;BME280;11041;50.854;20.580;2024-02-15T06:26:01;99349.69;;;3.57;93.14
21760;BME280;11041;50.854;20.580;2024-02-15T06:28:29;99344.50;;;3.56;92.05
21760;BME280;11041;50.854;20.580;2024-02-15T06:31:15;99342.06;;;3.54;92.03
21760;BME280;11041;50.854;20.580;2024-02-15T06:33:59;99347.16;;;3.51;92.05
21760;BME280;11041;50.854;20.580;2024-02-15T06:36:50;99347.66;;;3.48;92.10
21760;BME280;11041;50.854;20.580;2024-02-15T06:39:35;99349.81;;;3.46;91.88
21760;BME280;11041;50.854;20.580;2024-02-15T06:42:16;99341.94;;;3.44;91.17
21760;BME280;11041;50.854;20.580;2024-02-15T06:44:47;99354.44;;;3.45;92.23
21760;BME280;11041;50.854;20.580;2024-02-15T06:47:14;99349.00;;;3.45;92.18
21760;BME280;11041;50.854;20.580;2024-02-15T06:49:46;99345.78;;;3.48;92.46
21760;BME280;11041;50.854;20.580;2024-02-15T06:52:14;99351.25;;;3.53;92.89
21760;BME280;11041;50.854;20.580;2024-02-15T06:54:41;99352.16;;;3.59;91.64
21760;BME280;11041;50.854;20.580;2024-02-15T06:57:09;99349.75;;;3.62;92.37
21760;BME280;11041;50.854;20.580;2024-02-15T06:59:39;99348.72;;;3.69;91.79
21760;BME280;11041;50.854;20.580;2024-02-15T07:02:06;99348.53;;;3.75;92.27
21760;BME280;11041;50.854;20.580;2024-02-15T07:04:34;99349.97;;;3.83;91.89
21760;BME280;11041;50.854;20.580;2024-02-15T07:07:03;99355.22;;;3.90;91.46
21760;BME280;11041;50.854;20.580;2024-02-15T07:09:30;99354.16;;;3.96;90.96
21760;BME280;11041;50.854;20.580;2024-02-15T07:11:59;99347.16;;;4.00;90.67
21760;BME280;11041;50.854;20.580;2024-02-15T07:14:25;99357.25;;;4.04;90.35
21760;BME280;11041;50.854;20.580;2024-02-15T07:16:56;99356.72;;;4.08;90.06
21760;BME280;11041;50.854;20.580;2024-02-15T07:19:30;99361.41;;;4.12;90.14
21760;BME280;11041;50.854;20.580;2024-02-15T07:22:03;99358.44;;;4.14;88.76
21760;BME280;11041;50.854;20.580;2024-02-15T07:24:31;99348.94;;;4.16;89.41
21760;BME280;11041;50.854;20.580;2024-02-15T07:26:58;99358.19;;;4.20;90.00
21760;BME280;11041;50.854;20.580;2024-02-15T07:29:25;99357.69;;;4.23;89.71
21760;BME280;11041;50.854;20.580;2024-02-15T07:31:51;99359.63;;;4.28;89.39
21760;BME280;11041;50.854;20.580;2024-02-15T07:34:18;99371.06;;;4.30;88.91
21760;BME280;11041;50.854;20.580;2024-02-15T07:36:45;99368.63;;;4.29;88.32
21760;BME280;11041;50.854;20.580;2024-02-15T07:39:15;99372.16;;;4.29;88.47
21760;BME280;11041;50.854;20.580;2024-02-15T07:41:49;99364.81;;;4.30;88.26
21760;BME280;11041;50.854;20.580;2024-02-15T07:44:17;99374.34;;;4.32;88.87
21760;BME280;11041;50.854;20.580;2024-02-15T07:46:47;99372.72;;;4.31;88.81
21760;BME280;11041;50.854;20.580;2024-02-15T07:49:17;99368.09;;;4.32;89.01
21760;BME280;11041;50.854;20.580;2024-02-15T07:51:46;99368.91;;;4.32;89.41
21760;BME280;11041;50.854;20.580;2024-02-15T07:54:20;99362.41;;;4.33;89.37
21760;BME280;11041;50.854;20.580;2024-02-15T07:56:52;99364.03;;;4.34;89.23
21760;BME280;11041;50.854;20.580;2024-02-15T07:59:19;99368.38;;;4.35;89.34
21760;BME280;11041;50.854;20.580;2024-02-15T08:01:48;99368.38;;;4.35;89.12
21760;BME280;11041;50.854;20.580;2024-02-15T08:04:21;99363.78;;;4.36;89.43
21760;BME280;11041;50.854;20.580;2024-02-15T08:06:53;99357.00;;;4.38;89.59
21760;BME280;11041;50.854;20.580;2024-02-15T08:09:20;99365.72;;;4.40;89.32
21760;BME280;11041;50.854;20.580;2024-02-15T08:11:50;99364.13;;;4.44;89.51
21760;BME280;11041;50.854;20.580;2024-02-15T08:14:22;99367.19;;;4.53;90.05
21760;BME280;11041;50.854;20.580;2024-02-15T08:16:48;99361.22;;;4.56;90.12
21760;BME280;11041;50.854;20.580;2024-02-15T08:19:17;99363.72;;;4.63;89.12
21760;BME280;11041;50.854;20.580;2024-02-15T08:21:46;99363.50;;;4.69;89.93
21760;BME280;11041;50.854;20.580;2024-02-15T08:24:17;99368.19;;;4.79;89.47
21760;BME280;11041;50.854;20.580;2024-02-15T08:26:46;99358.72;;;4.87;88.61
21760;BME280;11041;50.854;20.580;2024-02-15T08:29:18;99350.88;;;4.96;89.32
21760;BME280;11041;50.854;20.580;2024-02-15T08:31:46;99356.91;;;5.03;88.72
21760;BME280;11041;50.854;20.580;2024-02-15T08:34:16;99370.03;;;5.11;88.44
21760;BME280;11041;50.854;20.580;2024-02-15T08:36:44;99365.16;;;5.18;88.29
21760;BME280;11041;50.854;20.580;2024-02-15T08:39:14;99355.38;;;5.22;87.81
21760;BME280;11041;50.854;20.580;2024-02-15T08:41:43;99361.09;;;5.26;87.33
21760;BME280;11041;50.854;20.580;2024-02-15T08:44:12;99364.13;;;5.29;86.69
21760;BME280;11041;50.854;20.580;2024-02-15T08:46:41;99372.84;;;5.31;86.35
21760;BME280;11041;50.854;20.580;2024-02-15T08:49:08;99369.03;;;5.32;86.12
21760;BME280;11041;50.854;20.580;2024-02-15T08:51:36;99369.84;;;5.33;85.86
21760;BME280;11041;50.854;20.580;2024-02-15T08:54:05;99362.50;;;5.33;86.18
21760;BME280;11041;50.854;20.580;2024-02-15T08:56:35;99366.34;;;5.38;86.06
21760;BME280;11041;50.854;20.580;2024-02-15T08:59:02;99370.72;;;5.44;86.62
21760;BME280;11041;50.854;20.580;2024-02-15T09:01:31;99372.91;;;5.47;86.18
21760;BME280;11041;50.854;20.580;2024-02-15T09:04:06;99379.75;;;5.49;85.78
21760;BME280;11041;50.854;20.580;2024-02-15T09:06:36;99376.47;;;5.52;86.76
21760;BME280;11041;50.854;20.580;2024-02-15T09:09:03;99377.34;;;5.58;86.82
21760;BME280;11041;50.854;20.580;2024-02-15T09:11:32;99376.81;;;5.66;86.37
21760;BME280;11041;50.854;20.580;2024-02-15T09:14:02;99374.66;;;5.73;85.97
21760;BME280;11041;50.854;20.580;2024-02-15T09:16:29;99378.19;;;5.79;85.35
21760;BME280;11041;50.854;20.580;2024-02-15T09:19:01;99374.97;;;5.82;85.21
21760;BME280;11041;50.854;20.580;2024-02-15T09:21:30;99379.56;;;5.87;86.10
21760;BME280;11041;50.854;20.580;2024-02-15T09:23:57;99381.28;;;5.98;87.25
21760;BME280;11041;50.854;20.580;2024-02-15T09:26:24;99374.78;;;6.09;87.38
21760;BME280;11041;50.854;20.580;2024-02-15T09:29:00;99375.88;;;6.24;87.12
21760;BME280;11041;50.854;20.580;2024-02-15T09:31:28;99375.63;;;6.35;87.06
21760;BME280;11041;50.854;20.580;2024-02-15T09:33:56;99380.81;;;6.47;86.65
21760;BME280;11041;50.854;20.580;2024-02-15T09:36:27;99387.91;;;6.58;86.06
21760;BME280;11041;50.854;20.580;2024-02-15T09:38:57;99386.25;;;6.68;85.49
21760;BME280;11041;50.854;20.580;2024-02-15T09:41:29;99381.34;;;6.65;83.86
21760;BME280;11041;50.854;20.580;2024-02-15T09:43:57;99383.53;;;6.68;83.54
21760;BME280;11041;50.854;20.580;2024-02-15T09:46:24;99377.25;;;6.62;82.94
21760;BME280;11041;50.854;20.580;2024-02-15T09:48:58;99375.91;;;6.59;84.14
21760;BME280;11041;50.854;20.580;2024-02-15T09:51:26;99383.81;;;6.71;85.24
21760;BME280;11041;50.854;20.580;2024-02-15T09:53:59;99390.88;;;6.88;85.21
21760;BME280;11041;50.854;20.580;2024-02-15T09:56:31;99382.94;;;7.01;85.21
21760;BME280;11041;50.854;20.580;2024-02-15T09:59:00;99379.66;;;7.15;84.90
21760;BME280;11041;50.854;20.580;2024-02-15T10:01:31;99387.25;;;7.28;84.01
21760;BME280;11041;50.854;20.580;2024-02-15T10:03:59;99376.81;;;7.40;84.33
21760;BME280;11041;50.854;20.580;2024-02-15T10:06:31;99378.97;;;7.54;84.12
21760;BME280;11041;50.854;20.580;2024-02-15T10:09:26;99379.47;;;7.66;83.76
21760;BME280;11041;50.854;20.580;2024-02-15T10:11:59;99370.38;;;7.76;83.38
21760;BME280;11041;50.854;20.580;2024-02-15T10:14:28;99369.50;;;7.85;82.84
21760;BME280;11041;50.854;20.580;2024-02-15T10:16:56;99361.00;;;7.92;82.47
21760;BME280;11041;50.854;20.580;2024-02-15T10:19:24;99363.44;;;7.94;80.70
21760;BME280;11041;50.854;20.580;2024-02-15T10:22:05;99356.84;;;8.00;81.66
21760;BME280;11041;50.854;20.580;2024-02-15T10:24:35;99353.50;;;8.08;82.12
21760;BME280;11041;50.854;20.580;2024-02-15T10:27:05;99347.13;;;8.18;81.93
21760;BME280;11041;50.854;20.580;2024-02-15T10:29:37;99346.25;;;8.27;81.66
21760;BME280;11041;50.854;20.580;2024-02-15T10:32:06;99346.44;;;8.36;81.51
21760;BME280;11041;50.854;20.580;2024-02-15T10:34:47;99343.16;;;8.44;81.34
21760;BME280;11041;50.854;20.580;2024-02-15T10:37:17;99346.13;;;8.48;80.91
21760;BME280;11041;50.854;20.580;2024-02-15T10:40:07;99343.34;;;8.53;80.90
21760;BME280;11041;50.854;20.580;2024-02-15T10:42:36;99340.53;;;8.58;80.70
21760;BME280;11041;50.854;20.580;2024-02-15T10:45:07;99336.94;;;8.63;80.98
21760;BME280;11041;50.854;20.580;2024-02-15T10:47:46;99329.50;;;8.68;81.74
21760;BME280;11041;50.854;20.580;2024-02-15T10:50:18;99337.38;;;8.75;81.54
21760;BME280;11041;50.854;20.580;2024-02-15T10:58:47;99324.28;;;9.20;81.53
21760;BME280;11041;50.854;20.580;2024-02-15T11:01:18;99327.97;;;9.34;79.83
21760;BME280;11041;50.854;20.580;2024-02-15T11:03:55;99320.38;;;9.50;79.31
21760;BME280;11041;50.854;20.580;2024-02-15T11:06:27;99327.88;;;9.64;77.32
21760;BME280;11041;50.854;20.580;2024-02-15T11:08:56;99321.22;;;9.70;77.26
21760;BME280;11041;50.854;20.580;2024-02-15T11:11:29;99324.69;;;9.75;76.87
21760;BME280;11041;50.854;20.580;2024-02-15T11:14:30;99324.34;;;9.82;76.66
21760;BME280;11041;50.854;20.580;2024-02-15T11:17:02;99320.19;;;9.85;76.99
21760;BME280;11041;50.854;20.580;2024-02-15T11:22:08;99314.41;;;9.86;76.43
21760;BME280;11041;50.854;20.580;2024-02-15T11:24:37;99314.09;;;9.88;76.34
21760;BME280;11041;50.854;20.580;2024-02-15T11:27:11;99313.19;;;9.92;76.60
21760;BME280;11041;50.854;20.580;2024-02-15T11:29:56;99298.59;;;9.97;76.58
21760;BME280;11041;50.854;20.580;2024-02-15T11:32:52;99305.41;;;9.99;75.58
21760;BME280;11041;50.854;20.580;2024-02-15T11:35:21;99303.38;;;10.05;76.55
21760;BME280;11041;50.854;20.580;2024-02-15T11:37:53;99309.84;;;10.14;77.21
21760;BME280;11041;50.854;20.580;2024-02-15T11:43:09;99290.72;;;10.28;76.58
21760;BME280;11041;50.854;20.580;2024-02-15T11:45:37;99291.34;;;10.39;77.01
21760;BME280;11041;50.854;20.580;2024-02-15T11:48:13;99291.72;;;10.51;75.86
21760;BME280;11041;50.854;20.580;2024-02-15T11:50:42;99281.53;;;10.52;74.22
21760;BME280;11041;50.854;20.580;2024-02-15T11:53:09;99279.72;;;10.61;74.86
21760;BME280;11041;50.854;20.580;2024-02-15T11:55:37;99288.81;;;10.75;75.05
21760;BME280;11041;50.854;20.580;2024-02-15T11:58:08;99274.34;;;10.83;72.68
21760;BME280;11041;50.854;20.580;2024-02-15T12:00:39;99269.78;;;10.93;73.30
21760;BME280;11041;50.854;20.580;2024-02-15T12:03:26;99277.19;;;11.06;73.62
21760;BME280;11041;50.854;20.580;2024-02-15T12:06:11;99273.63;;;11.19;73.45
21760;BME280;11041;50.854;20.580;2024-02-15T12:08:57;99281.06;;;11.33;72.79
21760;BME280;11041;50.854;20.580;2024-02-15T12:11:42;99276.69;;;11.45;72.70
21760;BME280;11041;50.854;20.580;2024-02-15T12:14:27;99280.63;;;11.53;70.41
21760;BME280;11041;50.854;20.580;2024-02-15T12:17:13;99286.13;;;11.53;71.19
21760;BME280;11041;50.854;20.580;2024-02-15T12:20:03;99285.22;;;11.58;71.04
21760;BME280;11041;50.854;20.580;2024-02-15T12:22:43;99286.03;;;11.58;70.47
21760;BME280;11041;50.854;20.580;2024-02-15T12:25:16;99287.88;;;11.49;69.26
21760;BME280;11041;50.854;20.580;2024-02-15T12:27:44;99277.59;;;11.27;70.95
21760;BME280;11041;50.854;20.580;2024-02-15T12:32:41;99269.97;;;11.24;71.64
21760;BME280;11041;50.854;20.580;2024-02-15T12:35:22;99277.59;;;11.27;71.54
21760;BME280;11041;50.854;20.580;2024-02-15T12:38:04;99277.09;;;11.25;71.23
21760;BME280;11041;50.854;20.580;2024-02-15T12:40:39;99271.59;;;11.25;71.19
21760;BME280;11041;50.854;20.580;2024-02-15T12:43:07;99276.09;;;11.21;70.89
21760;BME280;11041;50.854;20.580;2024-02-15T12:45:41;99277.81;;;11.17;71.27
21760;BME280;11041;50.854;20.580;2024-02-15T12:48:09;99280.34;;;11.13;71.55
21760;BME280;11041;50.854;20.580;2024-02-15T12:50:38;99269.28;;;11.04;71.13
21760;BME280;11041;50.854;20.580;2024-02-15T12:53:04;99283.41;;;10.98;71.66
21760;BME280;11041;50.854;20.580;2024-02-15T12:55:33;99276.38;;;10.92;72.36
21760;BME280;11041;50.854;20.580;2024-02-15T12:58:03;99269.56;;;10.89;72.47
21760;BME280;11041;50.854;20.580;2024-02-15T13:00:31;99270.38;;;10.90;73.07
21760;BME280;11041;50.854;20.580;2024-02-15T13:03:02;99274.84;;;10.85;73.38
21760;BME280;11041;50.854;20.580;2024-02-15T13:05:31;99267.72;;;10.84;73.81
21760;BME280;11041;50.854;20.580;2024-02-15T13:07:58;99270.78;;;10.83;73.85
21760;BME280;11041;50.854;20.580;2024-02-15T13:10:25;99274.84;;;10.72;73.58
21760;BME280;11041;50.854;20.580;2024-02-15T13:12:53;99268.31;;;10.68;73.89
21760;BME280;11041;50.854;20.580;2024-02-15T13:15:23;99273.78;;;10.54;74.24
21760;BME280;11041;50.854;20.580;2024-02-15T13:17:57;99266.75;;;10.48;74.81
21760;BME280;11041;50.854;20.580;2024-02-15T13:20:25;99262.91;;;10.49;75.46
21760;BME280;11041;50.854;20.580;2024-02-15T13:23:04;99265.13;;;10.47;74.82
21760;BME280;11041;50.854;20.580;2024-02-15T13:25:53;99258.22;;;10.49;75.18
21760;BME280;11041;50.854;20.580;2024-02-15T13:28:22;99263.72;;;10.49;75.62
21760;BME280;11041;50.854;20.580;2024-02-15T13:30:50;99255.66;;;10.53;75.83